Time;durP1;ratioP1;P1;durP2;ratioP2;P2;SDS_P1;SDS_P2;PMS_P1;PMS_P2;Temp;Humidity;BMP_temperature;BMP_pressure;BME280_temperature;BME280_humidity;BME280_pressure;Samples;Min_cycle;Max_cycle;Signal;HPM_P1;HPM_P2
2022/02/05 00:02:40;;;;;;;13.38;4.68;;;3.80;99.90;;;;;;5077095;28;20247;-59
2022/02/05 00:05:11;;;;;;;18.73;5.53;;;3.80;99.90;;;;;;5075879;28;20185;-61
2022/02/05 00:07:43;;;;;;;10.77;5.00;;;3.80;99.90;;;;;;5076123;28;20192;-61
2022/02/05 00:15:44;;;;;;;9.35;4.57;;;3.90;99.90;;;;;;5072410;28;20279;-60
2022/02/05 00:40:16;;;;;;;11.10;5.05;;;4.20;99.90;;;;;;5075167;28;20223;-60
2022/02/05 00:42:43;;;;;;;6.30;4.18;;;4.30;99.90;;;;;;5074934;28;20652;-59
2022/02/05 00:45:12;;;;;;;8.15;5.30;;;4.30;99.90;;;;;;5074854;28;20205;-59
2022/02/05 00:47:43;;;;;;;6.10;5.50;;;4.30;99.90;;;;;;5074738;28;20571;-60
2022/02/05 00:50:17;;;;;;;7.97;4.90;;;4.40;99.90;;;;;;5091051;28;20264;-60
2022/02/05 00:52:57;;;;;;;6.10;4.72;;;4.40;99.90;;;;;;5085383;28;20220;-60
2022/02/05 00:55:28;;;;;;;4.72;3.75;;;4.30;99.90;;;;;;5087110;28;20204;-60
2022/02/05 00:58:02;;;;;;;7.10;4.72;;;4.30;99.90;;;;;;5086698;28;20185;-61
2022/02/05 01:00:30;;;;;;;4.50;3.70;;;4.20;99.90;;;;;;5076427;28;20225;-59
2022/02/05 01:02:58;;;;;;;5.03;4.38;;;4.20;99.90;;;;;;5074572;28;20693;-60
2022/02/05 01:05:26;;;;;;;5.65;4.18;;;4.20;99.90;;;;;;5074817;28;20204;-59
2022/02/05 01:07:56;;;;;;;8.68;4.53;;;4.20;99.90;;;;;;5074805;28;20208;-59
2022/02/05 01:10:24;;;;;;;7.05;4.38;;;4.30;99.90;;;;;;5078443;28;20225;-59
2022/02/05 01:12:55;;;;;;;10.05;4.97;;;4.30;99.90;;;;;;5078154;28;20296;-59
2022/02/05 01:15:27;;;;;;;11.45;4.88;;;4.30;99.90;;;;;;5077765;28;20183;-58
2022/02/05 01:17:59;;;;;;;7.72;5.00;;;4.30;99.90;;;;;;5077843;28;20193;-59
2022/02/05 01:23:16;;;;;;;9.38;5.32;;;4.40;99.90;;;;;;5074318;28;20212;-60
2022/02/05 01:25:59;;;;;;;10.43;5.72;;;4.30;99.90;;;;;;5074751;28;20189;-59
2022/02/05 01:28:31;;;;;;;7.63;5.75;;;4.30;99.90;;;;;;5074283;28;20272;-59
2022/02/05 01:30:59;;;;;;;7.10;5.75;;;4.30;99.90;;;;;;5073922;28;20308;-60
2022/02/05 01:33:42;;;;;;;9.68;6.35;;;4.30;99.90;;;;;;5073987;28;20205;-60
2022/02/05 01:36:28;;;;;;;9.65;5.97;;;4.30;99.90;;;;;;5074256;28;20602;-60
2022/02/05 01:53:07;;;;;;;10.60;6.20;;;4.40;99.90;;;;;;5073332;28;20212;-59
2022/02/05 01:55:51;;;;;;;10.70;6.68;;;4.50;99.90;;;;;;5074144;28;20181;-60
2022/02/05 01:58:24;;;;;;;12.80;5.20;;;4.50;99.90;;;;;;5073623;28;20230;-59
2022/02/05 02:06:33;;;;;;;11.00;5.53;;;4.50;99.90;;;;;;5073722;28;20189;-60
2022/02/05 02:11:49;;;;;;;12.00;5.75;;;4.50;99.90;;;;;;5077780;28;20211;-58
2022/02/05 02:14:37;;;;;;;8.45;5.32;;;4.50;99.90;;;;;;5077848;28;20181;-60
2022/02/05 02:22:42;;;;;;;8.73;5.93;;;4.60;99.90;;;;;;5087127;28;20252;-59
2022/02/05 02:25:21;;;;;;;8.15;5.30;;;4.60;99.90;;;;;;5084009;28;20684;-59
2022/02/05 02:27:58;;;;;;;6.22;4.40;;;4.60;99.90;;;;;;5082917;28;20189;-60
2022/02/05 02:30:29;;;;;;;9.15;3.60;;;4.60;99.90;;;;;;5075616;28;20225;-59
2022/02/05 02:32:58;;;;;;;9.25;5.20;;;4.60;99.90;;;;;;5073660;28;20185;-60
2022/02/05 02:35:27;;;;;;;9.13;5.05;;;4.60;99.90;;;;;;5073666;28;20574;-59
2022/02/05 02:38:01;;;;;;;15.68;5.00;;;4.60;99.90;;;;;;5074051;28;20209;-58
2022/02/05 02:40:37;;;;;;;8.30;4.50;;;4.60;99.90;;;;;;5074229;28;20216;-59
2022/02/05 02:43:08;;;;;;;10.13;4.60;;;4.70;99.90;;;;;;5073210;28;20650;-60
2022/02/05 02:45:35;;;;;;;9.73;4.80;;;4.70;99.90;;;;;;5073335;28;20204;-60
2022/02/05 02:48:02;;;;;;;11.85;4.50;;;4.60;99.90;;;;;;5073541;28;20201;-60
2022/02/05 02:50:34;;;;;;;8.05;4.55;;;4.70;99.90;;;;;;5073253;28;20224;-60
2022/02/05 02:58:34;;;;;;;8.45;4.65;;;4.60;99.90;;;;;;5073180;28;20532;-59
2022/02/05 03:01:01;;;;;;;9.20;4.95;;;4.60;99.90;;;;;;5072684;28;20708;-59
2022/02/05 03:03:29;;;;;;;5.95;3.17;;;4.60;99.90;;;;;;5074073;28;20213;-60
2022/02/05 03:05:56;;;;;;;9.30;4.22;;;4.70;99.90;;;;;;5077139;28;20204;-59
2022/02/05 03:08:25;;;;;;;8.45;4.57;;;4.70;99.90;;;;;;5076687;28;20207;-59
2022/02/05 03:10:52;;;;;;;5.47;3.22;;;4.70;99.90;;;;;;5077055;28;20221;-59
2022/02/05 03:13:19;;;;;;;11.45;4.60;;;4.70;99.90;;;;;;5076944;28;20293;-59
2022/02/05 03:15:48;;;;;;;5.35;3.28;;;4.70;99.90;;;;;;5077201;28;20610;-59
2022/02/05 03:18:27;;;;;;;8.98;4.45;;;4.70;99.90;;;;;;5076635;28;20669;-60
2022/02/05 03:20:54;;;;;;;8.20;4.50;;;4.70;99.90;;;;;;5076667;28;20252;-59
2022/02/05 03:23:21;;;;;;;5.95;4.00;;;4.80;99.90;;;;;;5076668;28;20585;-59
2022/02/05 03:25:50;;;;;;;5.05;3.25;;;4.70;99.90;;;;;;5076514;28;20209;-59
2022/02/05 03:28:17;;;;;;;11.48;4.15;;;4.70;99.90;;;;;;5076267;28;20201;-58
2022/02/05 03:30:44;;;;;;;6.15;3.88;;;4.70;99.90;;;;;;5076475;28;20225;-59
2022/02/05 03:33:11;;;;;;;6.07;3.47;;;4.70;99.90;;;;;;5076089;28;20215;-60
2022/02/05 03:35:39;;;;;;;5.15;3.22;;;4.70;99.90;;;;;;5076360;28;20204;-59
2022/02/05 03:38:06;;;;;;;4.95;3.38;;;4.70;99.90;;;;;;5076422;28;20204;-60
2022/02/05 03:40:33;;;;;;;8.00;3.80;;;4.60;99.90;;;;;;5076145;28;20221;-59
2022/02/05 03:43:01;;;;;;;9.95;3.20;;;4.60;99.90;;;;;;5076108;28;20685;-60
2022/02/05 03:45:28;;;;;;;9.52;4.28;;;4.50;99.90;;;;;;5076292;28;20221;-59
2022/02/05 03:47:55;;;;;;;6.07;3.20;;;4.50;99.90;;;;;;5076643;28;20201;-60
2022/02/05 03:50:23;;;;;;;4.90;3.38;;;4.50;99.90;;;;;;5075980;28;20220;-60
2022/02/05 03:52:50;;;;;;;5.18;3.03;;;4.50;99.90;;;;;;5076317;28;20208;-60
2022/02/05 03:55:17;;;;;;;9.32;4.75;;;4.50;99.90;;;;;;5076231;28;20664;-60
2022/02/05 03:57:44;;;;;;;6.25;3.22;;;4.50;99.90;;;;;;5076373;28;20201;-59
2022/02/05 04:00:14;;;;;;;8.30;3.30;;;4.50;99.90;;;;;;5076443;28;20225;-59
2022/02/05 04:02:41;;;;;;;8.57;4.25;;;4.50;99.90;;;;;;5076162;28;20204;-59
2022/02/05 04:05:09;;;;;;;8.40;3.63;;;4.50;99.90;;;;;;5076703;28;20223;-59
2022/02/05 04:09:22;;;;;;;5.60;3.38;;;4.50;99.90;;;;;;5091903;27;20615;-58
2022/02/05 04:15:56;;;;;;;9.10;4.70;;;4.50;99.90;;;;;;5070476;28;20634;-60
2022/02/05 04:17:32;;;;;;;10.70;3.25;;;4.50;99.90;;;;;;5077003;28;20276;-58
2022/02/05 04:19:59;;;;;;;8.25;4.00;;;4.50;99.90;;;;;;5084017;22;20229;-55
2022/02/05 04:22:26;;;;;;;5.85;3.40;;;4.40;99.90;;;;;;5050020;28;20205;-56
2022/02/05 04:24:54;;;;;;;5.47;3.95;;;4.40;99.90;;;;;;5050381;28;20209;-53
2022/02/05 04:27:22;;;;;;;4.25;3.33;;;4.40;99.90;;;;;;5050361;28;20225;-55
2022/02/05 04:29:49;;;;;;;5.22;3.75;;;4.40;99.90;;;;;;5050339;28;20232;-53
2022/02/05 04:32:16;;;;;;;6.25;3.38;;;4.40;99.90;;;;;;5050450;28;20221;-53
2022/02/05 04:34:43;;;;;;;5.13;3.47;;;4.40;99.90;;;;;;5054944;28;20204;-56
2022/02/05 04:37:10;;;;;;;9.23;3.97;;;4.40;99.90;;;;;;5055101;28;20202;-55
2022/02/05 04:39:43;;;;;;;6.90;3.75;;;4.40;99.90;;;;;;5052528;28;20232;-56
2022/02/05 04:42:18;;;;;;;6.90;3.45;;;4.40;99.90;;;;;;5054279;28;20700;-55
2022/02/05 04:45:03;;;;;;;8.73;3.83;;;4.40;99.90;;;;;;5055021;28;20186;-55
2022/02/05 04:50:36;;;;;;;8.05;4.85;;;4.40;99.90;;;;;;5048604;28;20272;-55
2022/02/05 04:53:20;;;;;;;9.98;4.18;;;4.30;99.90;;;;;;5054382;28;20186;-54
2022/02/05 04:56:12;;;;;;;8.50;3.90;;;4.30;99.90;;;;;;5051178;28;20197;-55
2022/02/05 04:59:11;;;;;;;13.18;4.53;;;4.30;99.90;;;;;;5049809;28;20182;-56
2022/02/05 05:01:52;;;;;;;10.38;4.07;;;4.30;99.90;;;;;;5049673;28;20200;-56
2022/02/05 05:04:29;;;;;;;4.68;3.75;;;4.30;99.90;;;;;;5050111;28;20540;-55
2022/02/05 05:09:54;;;;;;;4.72;3.53;;;4.30;99.90;;;;;;5049979;28;20221;-56
2022/02/05 05:12:29;;;;;;;5.68;3.53;;;4.30;99.90;;;;;;5050222;28;20189;-54
2022/02/05 05:20:52;;;;;;;6.90;3.25;;;4.30;99.90;;;;;;5013189;28;20604;-55
2022/02/05 05:23:19;;;;;;;8.70;3.92;;;4.20;99.90;;;;;;5027623;28;20210;-55
2022/02/05 05:25:46;;;;;;;10.30;4.07;;;4.20;99.90;;;;;;5035562;28;20205;-55
2022/02/05 05:28:13;;;;;;;6.82;3.90;;;4.20;99.90;;;;;;5036046;28;20551;-55
2022/02/05 05:30:42;;;;;;;14.63;5.47;;;4.20;99.90;;;;;;5035782;28;20222;-56
2022/02/05 05:33:09;;;;;;;9.23;4.05;;;4.20;99.90;;;;;;5035785;28;20213;-56
2022/02/05 05:35:36;;;;;;;10.23;4.05;;;4.20;99.90;;;;;;5035820;28;20217;-55
2022/02/05 05:38:03;;;;;;;6.07;3.28;;;4.20;99.90;;;;;;5035669;28;20206;-55
2022/02/05 05:40:31;;;;;;;6.10;3.30;;;4.20;99.90;;;;;;5035596;28;20218;-56
2022/02/05 05:43:02;;;;;;;9.35;4.00;;;4.20;99.90;;;;;;5035287;28;20210;-54
2022/02/05 05:45:41;;;;;;;16.30;3.38;;;4.20;99.90;;;;;;5036345;28;20265;-54
2022/02/05 05:48:14;;;;;;;6.82;3.35;;;4.20;99.90;;;;;;5035452;28;20688;-55
2022/02/05 05:51:00;;;;;;;9.23;2.97;;;4.20;99.90;;;;;;5035156;28;20617;-56
2022/02/05 05:53:28;;;;;;;7.53;3.05;;;4.10;99.90;;;;;;5035531;28;20183;-55
2022/02/05 05:55:57;;;;;;;4.18;2.92;;;4.10;99.90;;;;;;5035217;28;20206;-56
2022/02/05 05:58:25;;;;;;;8.45;2.72;;;4.10;99.90;;;;;;5035309;28;20537;-54
2022/02/05 06:00:52;;;;;;;4.57;3.50;;;4.10;99.90;;;;;;5034767;28;20232;-55
2022/02/05 06:03:20;;;;;;;9.48;3.75;;;4.10;99.90;;;;;;5034786;28;20213;-55
2022/02/05 06:05:48;;;;;;;8.50;4.75;;;4.20;99.90;;;;;;5035088;28;20203;-55
2022/02/05 06:08:16;;;;;;;6.20;3.40;;;4.10;99.90;;;;;;5035072;28;20218;-56
2022/02/05 06:10:44;;;;;;;8.60;3.60;;;3.90;99.90;;;;;;5034949;28;20234;-55
2022/02/05 06:13:11;;;;;;;7.07;4.03;;;3.80;99.90;;;;;;5034982;28;20199;-55
2022/02/05 06:15:39;;;;;;;7.35;4.70;;;3.70;99.90;;;;;;5034918;28;20217;-56
2022/02/05 06:18:07;;;;;;;19.50;5.43;;;3.60;99.90;;;;;;5034883;28;20256;-54
2022/02/05 06:20:36;;;;;;;9.98;4.55;;;3.50;99.90;;;;;;5034399;28;20239;-55
2022/02/05 06:23:03;;;;;;;9.98;4.05;;;3.50;99.90;;;;;;5034397;28;20206;-55
2022/02/05 06:25:32;;;;;;;8.98;4.47;;;3.50;99.90;;;;;;5034485;28;20205;-55
2022/02/05 06:27:59;;;;;;;7.38;4.85;;;3.50;99.90;;;;;;5034565;28;20226;-55
2022/02/05 06:30:27;;;;;;;11.75;5.40;;;3.60;99.90;;;;;;5033914;28;20233;-54
2022/02/05 06:32:54;;;;;;;10.10;5.45;;;3.50;99.90;;;;;;5034059;28;20696;-54
2022/02/05 06:35:21;;;;;;;6.93;5.90;;;3.60;99.90;;;;;;5034497;28;20233;-54
2022/02/05 06:37:50;;;;;;;14.80;4.35;;;3.60;99.90;;;;;;5034337;28;20198;-54
2022/02/05 06:40:17;;;;;;;11.43;6.05;;;3.60;99.90;;;;;;5034152;28;20727;-54
2022/02/05 06:42:47;;;;;;;13.38;5.35;;;3.60;99.90;;;;;;5033083;28;20932;-54
2022/02/05 06:45:15;;;;;;;10.43;5.55;;;3.70;99.90;;;;;;5034036;28;20674;-55
2022/02/05 06:47:42;;;;;;;13.68;5.07;;;3.70;99.90;;;;;;5033840;28;20208;-55
2022/02/05 06:50:11;;;;;;;8.07;4.40;;;3.70;99.90;;;;;;5036087;28;20309;-55
2022/02/05 06:52:38;;;;;;;8.90;4.32;;;3.70;99.90;;;;;;5037263;28;20207;-57
2022/02/05 06:55:08;;;;;;;8.20;4.70;;;3.70;99.90;;;;;;5034495;28;20202;-57
2022/02/05 06:57:36;;;;;;;10.38;4.65;;;3.80;99.90;;;;;;5034206;28;20191;-58
2022/02/05 07:00:04;;;;;;;9.80;5.25;;;3.80;99.90;;;;;;5034784;28;20253;-57
2022/02/05 07:02:31;;;;;;;11.40;5.40;;;3.80;99.90;;;;;;5035671;28;20217;-56
2022/02/05 07:04:58;;;;;;;7.80;4.25;;;3.80;99.90;;;;;;5036981;28;20208;-57
2022/02/05 07:07:25;;;;;;;10.88;5.80;;;3.80;99.90;;;;;;5036917;28;20573;-56
2022/02/05 07:09:53;;;;;;;6.65;4.55;;;3.70;99.90;;;;;;5035625;28;20234;-56
2022/02/05 07:12:21;;;;;;;8.63;4.85;;;3.70;99.90;;;;;;5035663;28;20202;-56
2022/02/05 07:15:00;;;;;;;7.28;4.80;;;3.70;99.90;;;;;;5035111;28;20319;-56
2022/02/05 07:17:36;;;;;;;10.13;4.93;;;3.70;99.90;;;;;;5035676;28;20250;-55
2022/02/05 07:20:10;;;;;;;5.95;3.88;;;3.70;99.90;;;;;;5034465;28;20226;-56
2022/02/05 07:22:49;;;;;;;7.93;3.80;;;3.80;99.90;;;;;;5034473;28;20208;-56
2022/02/05 07:30:47;;;;;;;10.38;4.80;;;3.80;99.90;;;;;;5034794;28;20708;-55
2022/02/05 07:33:14;;;;;;;10.32;5.25;;;3.80;99.90;;;;;;5034975;28;20209;-55
2022/02/05 07:35:41;;;;;;;10.88;4.55;;;3.80;99.90;;;;;;5034057;28;20198;-55
2022/02/05 07:38:08;;;;;;;14.60;4.82;;;3.80;99.90;;;;;;5033623;28;20205;-55
2022/02/05 07:40:35;;;;;;;11.80;5.65;;;3.80;99.90;;;;;;5033951;28;20222;-57
2022/02/05 07:43:04;;;;;;;7.05;4.43;;;3.80;99.90;;;;;;5033077;28;20210;-55
2022/02/05 07:45:31;;;;;;;5.13;3.70;;;3.80;99.90;;;;;;5033696;28;20229;-56
2022/02/05 07:47:58;;;;;;;6.03;4.68;;;3.90;99.90;;;;;;5033341;28;20718;-55
2022/02/05 07:50:25;;;;;;;14.07;5.15;;;3.90;99.90;;;;;;5033477;28;20588;-56
2022/02/05 07:52:52;;;;;;;18.48;5.78;;;3.90;99.90;;;;;;5033595;28;20211;-55
2022/02/05 07:55:20;;;;;;;14.95;5.30;;;4.00;99.90;;;;;;5033612;28;20576;-56
2022/02/05 07:57:47;;;;;;;11.50;5.28;;;4.10;99.90;;;;;;5033316;28;20206;-57
2022/02/05 08:00:16;;;;;;;10.23;4.57;;;4.10;99.90;;;;;;5033007;28;20225;-56
2022/02/05 08:02:44;;;;;;;10.32;4.30;;;4.10;99.90;;;;;;5033452;28;20210;-56
2022/02/05 08:05:11;;;;;;;12.10;5.57;;;4.10;99.90;;;;;;5033658;28;20214;-57
2022/02/05 08:07:39;;;;;;;9.55;4.78;;;4.20;99.90;;;;;;5033423;28;20206;-56
2022/02/05 08:10:08;;;;;;;6.50;3.10;;;4.30;99.90;;;;;;5033282;28;20236;-56
2022/02/05 08:12:39;;;;;;;10.40;4.32;;;4.30;99.90;;;;;;5033235;28;20202;-56
2022/02/05 08:15:07;;;;;;;8.57;4.70;;;4.20;99.90;;;;;;5032899;28;20186;-56
2022/02/05 08:17:37;;;;;;;14.35;6.28;;;4.20;99.90;;;;;;5033158;28;20252;-57
2022/02/05 08:20:06;;;;;;;15.02;5.30;;;4.10;99.90;;;;;;5032323;28;20234;-56
2022/02/05 08:22:33;;;;;;;9.20;5.40;;;4.00;99.90;;;;;;5032643;28;20210;-56
2022/02/05 08:25:00;;;;;;;13.63;5.97;;;4.00;99.90;;;;;;5032851;28;20202;-55
2022/02/05 08:27:27;;;;;;;7.88;5.53;;;3.90;99.90;;;;;;5032610;28;20301;-57
2022/02/05 08:29:56;;;;;;;9.10;5.13;;;3.80;99.90;;;;;;5032629;28;20257;-55
2022/02/05 08:32:25;;;;;;;11.35;6.00;;;3.80;99.90;;;;;;5032809;28;20210;-57
2022/02/05 08:34:55;;;;;;;13.43;6.20;;;3.80;99.90;;;;;;5032451;28;20205;-56
2022/02/05 08:37:22;;;;;;;9.25;5.35;;;3.80;99.90;;;;;;5032588;28;20693;-58
2022/02/05 08:39:49;;;;;;;12.50;5.80;;;3.80;99.90;;;;;;5032987;28;20222;-57
2022/02/05 08:42:16;;;;;;;10.82;5.50;;;3.80;99.90;;;;;;5033001;28;20213;-57
2022/02/05 08:44:43;;;;;;;10.25;5.47;;;3.80;99.90;;;;;;5032704;28;20213;-57
2022/02/05 08:47:10;;;;;;;10.02;4.78;;;3.90;99.90;;;;;;5032904;28;20199;-57
2022/02/05 08:49:37;;;;;;;9.10;3.70;;;4.00;99.90;;;;;;5032614;28;20237;-58
2022/02/05 08:52:09;;;;;;;14.88;5.20;;;4.00;99.90;;;;;;5032832;28;20206;-57
2022/02/05 08:54:36;;;;;;;10.27;4.45;;;4.00;99.90;;;;;;5034269;28;20187;-56
2022/02/05 08:57:05;;;;;;;11.63;4.70;;;4.10;99.90;;;;;;5036395;28;20584;-58
2022/02/05 08:59:43;;;;;;;12.45;3.08;;;4.10;99.90;;;;;;5036369;28;20270;-56
2022/02/05 09:02:15;;;;;;;10.00;4.47;;;4.20;99.90;;;;;;5036511;28;20186;-56
2022/02/05 09:04:51;;;;;;;19.67;4.28;;;4.20;99.90;;;;;;5036582;28;20186;-55
2022/02/05 09:07:20;;;;;;;11.05;4.50;;;4.30;99.90;;;;;;5036477;28;20194;-57
2022/02/05 09:10:01;;;;;;;10.90;4.60;;;4.40;99.90;;;;;;5035790;28;20238;-57
2022/02/05 09:12:44;;;;;;;9.98;3.50;;;4.40;99.90;;;;;;5036411;28;20190;-57
2022/02/05 09:15:11;;;;;;;13.43;5.03;;;4.50;99.90;;;;;;5036507;28;20187;-57
2022/02/05 09:17:38;;;;;;;14.52;4.65;;;4.50;99.90;;;;;;5036268;28;20202;-56
2022/02/05 09:20:07;;;;;;;9.35;4.40;;;4.60;99.90;;;;;;5035747;28;20226;-55
2022/02/05 09:22:35;;;;;;;10.55;4.07;;;4.60;99.90;;;;;;5036095;28;20639;-57
2022/02/05 09:25:02;;;;;;;9.02;4.45;;;4.70;99.90;;;;;;5035918;28;20674;-57
2022/02/05 09:27:37;;;;;;;4.95;3.28;;;4.70;99.90;;;;;;5035932;28;20198;-58
2022/02/05 09:30:12;;;;;;;7.88;3.65;;;4.80;99.90;;;;;;5035591;28;20233;-56
2022/02/05 09:32:39;;;;;;;7.30;4.45;;;4.80;99.90;;;;;;5035816;28;20285;-56
2022/02/05 09:35:07;;;;;;;8.65;4.18;;;4.80;99.90;;;;;;5035732;28;20206;-55
2022/02/05 09:37:36;;;;;;;9.10;3.28;;;4.80;99.90;;;;;;5035449;28;20242;-56
2022/02/05 09:40:04;;;;;;;13.80;4.43;;;4.80;99.90;;;;;;5035528;28;20563;-55
2022/02/05 09:42:32;;;;;;;8.95;3.60;;;4.90;99.90;;;;;;5035151;28;20206;-56
2022/02/05 09:45:01;;;;;;;10.63;3.90;;;4.90;99.90;;;;;;5035458;28;20597;-54
2022/02/05 09:47:29;;;;;;;10.07;4.70;;;5.00;99.90;;;;;;5035017;28;20202;-56
2022/02/05 09:49:56;;;;;;;5.75;3.35;;;5.10;99.90;;;;;;5034735;28;20238;-56
2022/02/05 09:52:26;;;;;;;7.85;4.30;;;5.10;99.90;;;;;;5035753;28;20206;-55
2022/02/05 09:54:55;;;;;;;8.75;3.40;;;5.20;99.90;;;;;;5035161;28;20296;-55
2022/02/05 09:57:22;;;;;;;9.98;3.67;;;5.20;99.90;;;;;;5035229;28;20203;-56
2022/02/05 09:59:56;;;;;;;4.65;3.60;;;5.20;99.90;;;;;;5035046;28;20222;-56
2022/02/05 10:02:25;;;;;;;7.03;3.90;;;5.20;99.90;;;;;;5035135;28;20197;-56
2022/02/05 10:04:57;;;;;;;7.38;3.15;;;5.20;99.90;;;;;;5034463;28;20666;-55
2022/02/05 10:07:26;;;;;;;10.70;4.10;;;5.30;99.90;;;;;;5035505;28;20573;-55
2022/02/05 10:09:59;;;;;;;14.25;4.35;;;5.40;99.90;;;;;;5034705;28;20257;-57
2022/02/05 10:12:26;;;;;;;7.22;3.83;;;5.40;99.90;;;;;;5034668;28;20749;-56
2022/02/05 10:14:55;;;;;;;12.43;4.85;;;5.50;99.90;;;;;;5034786;28;20297;-57
2022/02/05 10:17:37;;;;;;;10.55;4.50;;;5.50;99.90;;;;;;5035166;28;20253;-55
2022/02/05 10:20:06;;;;;;;12.13;4.90;;;5.60;99.90;;;;;;5059246;22;20284;-61
2022/02/05 10:22:37;;;;;;;12.25;3.50;;;5.70;99.90;;;;;;5015662;28;20675;-62
2022/02/05 10:25:17;;;;;;;11.43;3.88;;;5.80;99.90;;;;;;5015664;28;20611;-61
2022/02/05 10:27:46;;;;;;;6.82;3.60;;;5.80;99.90;;;;;;5015189;28;20549;-62
2022/02/05 10:30:18;;;;;;;7.97;3.70;;;5.90;99.90;;;;;;5015304;28;20281;-61
2022/02/05 10:32:49;;;;;;;5.38;2.83;;;6.00;99.90;;;;;;5014782;28;20200;-61
2022/02/05 10:35:31;;;;;;;4.68;2.70;;;6.00;99.90;;;;;;5015343;28;20554;-61
2022/02/05 10:38:13;;;;;;;7.38;3.47;;;6.10;99.40;;;;;;5015040;28;20191;-61
2022/02/05 10:40:45;;;;;;;6.38;2.90;;;6.00;99.00;;;;;;5014686;28;20227;-61
2022/02/05 10:43:13;;;;;;;6.57;3.53;;;6.00;98.80;;;;;;5015424;28;20193;-62
2022/02/05 10:45:44;;;;;;;4.03;2.75;;;6.10;98.30;;;;;;5016847;28;20206;-61
2022/02/05 10:48:12;;;;;;;9.27;3.47;;;6.10;97.30;;;;;;5015715;28;20194;-61
2022/02/05 10:50:39;;;;;;;6.15;3.00;;;6.20;97.00;;;;;;5015128;28;20227;-61
2022/02/05 10:53:12;;;;;;;4.78;3.10;;;6.20;96.60;;;;;;5014173;28;20213;-62
2022/02/05 10:55:56;;;;;;;7.40;3.28;;;6.20;96.40;;;;;;5014532;28;20191;-60
2022/02/05 10:58:34;;;;;;;15.25;4.10;;;6.30;96.80;;;;;;5014544;28;20278;-60
2022/02/05 11:06:54;;;;;;;5.30;2.88;;;6.40;95.80;;;;;;5014754;28;20187;-62
2022/02/05 11:09:23;;;;;;;14.13;4.18;;;6.50;95.70;;;;;;5014395;28;20226;-61
2022/02/05 11:20:08;;;;;;;8.25;3.20;;;6.60;94.20;;;;;;5004816;28;20202;-60
2022/02/05 11:22:39;;;;;;;4.55;3.00;;;6.50;94.00;;;;;;5014675;28;20563;-61
2022/02/05 11:25:08;;;;;;;7.88;3.55;;;6.60;94.40;;;;;;5014022;28;20651;-60
2022/02/05 11:27:42;;;;;;;5.80;3.60;;;6.60;94.00;;;;;;5013834;28;20203;-60
2022/02/05 11:30:32;;;;;;;8.32;3.40;;;6.70;93.80;;;;;;5013982;28;20725;-60
2022/02/05 11:33:04;;;;;;;7.35;3.38;;;6.80;93.10;;;;;;5022662;28;20207;-60
2022/02/05 11:35:42;;;;;;;4.53;3.35;;;6.90;92.40;;;;;;5026697;28;20191;-61
2022/02/05 11:38:10;;;;;;;6.07;2.80;;;6.80;92.10;;;;;;5021813;28;20189;-59
2022/02/05 11:40:53;;;;;;;4.90;2.58;;;6.80;92.00;;;;;;5021113;28;20222;-61
2022/02/05 11:43:27;;;;;;;7.90;2.67;;;6.80;91.70;;;;;;5018412;28;20191;-60
2022/02/05 11:46:09;;;;;;;9.93;3.28;;;6.70;91.50;;;;;;5017000;28;20528;-61
2022/02/05 11:48:41;;;;;;;5.72;3.15;;;6.60;91.30;;;;;;5019900;28;20210;-61
2022/02/05 11:51:11;;;;;;;6.78;2.55;;;6.60;91.70;;;;;;5022604;28;20233;-60
2022/02/05 11:54:16;;;;;;;7.93;3.50;;;6.70;91.90;;;;;;5025522;28;20203;-60
2022/02/05 11:56:53;;;;;;;8.35;2.92;;;6.70;91.40;;;;;;5024266;28;20282;-62
2022/02/05 11:59:24;;;;;;;7.18;3.78;;;6.60;91.70;;;;;;5023836;28;20206;-59
2022/02/05 12:02:08;;;;;;;7.60;3.22;;;6.70;91.90;;;;;;5017330;28;20225;-61
2022/02/05 12:04:36;;;;;;;6.20;2.90;;;6.70;91.60;;;;;;5014933;28;20191;-60
2022/02/05 12:07:07;;;;;;;7.72;3.42;;;6.70;91.30;;;;;;5013848;28;20203;-61
2022/02/05 12:09:37;;;;;;;8.82;3.60;;;6.80;91.30;;;;;;5014035;28;20215;-62
2022/02/05 12:12:36;;;;;;;6.03;3.30;;;6.80;90.50;;;;;;5013954;28;20226;-60
2022/02/05 12:15:25;;;;;;;9.23;3.55;;;6.70;90.40;;;;;;5013786;28;20191;-60
2022/02/05 12:21:05;;;;;;;7.72;3.17;;;6.70;90.30;;;;;;5011371;28;20223;-60
2022/02/05 12:26:59;;;;;;;9.85;3.00;;;6.70;89.80;;;;;;5014172;28;20281;-61
2022/02/05 12:29:31;;;;;;;8.48;3.33;;;6.70;90.10;;;;;;5014947;28;20607;-60
2022/02/05 12:32:00;;;;;;;8.00;3.08;;;6.80;90.20;;;;;;5017613;28;20255;-61
2022/02/05 12:34:39;;;;;;;6.07;2.90;;;6.80;90.30;;;;;;5018165;28;20226;-60
2022/02/05 12:37:06;;;;;;;8.40;2.88;;;6.90;90.10;;;;;;5017015;28;20619;-60
2022/02/05 12:39:35;;;;;;;9.43;3.08;;;6.90;90.20;;;;;;5017250;28;20203;-60
2022/02/05 12:42:06;;;;;;;8.35;2.55;;;6.90;90.20;;;;;;5016721;28;20223;-61
2022/02/05 12:44:36;;;;;;;4.95;3.83;;;6.90;90.00;;;;;;5018060;28;20199;-61
2022/02/05 12:47:10;;;;;;;7.72;2.95;;;6.90;88.50;;;;;;5017898;28;20194;-60
2022/02/05 12:49:43;;;;;;;9.68;3.30;;;6.80;88.90;;;;;;5018485;28;20222;-61
2022/02/05 12:52:11;;;;;;;11.63;3.78;;;6.80;89.40;;;;;;5018024;28;20632;-61
2022/02/05 12:54:47;;;;;;;7.00;2.55;;;6.80;89.80;;;;;;5017353;28;20202;-61
2022/02/05 12:57:17;;;;;;;14.05;3.90;;;6.80;89.00;;;;;;5016909;28;20642;-61
2022/02/05 12:59:45;;;;;;;8.20;3.15;;;6.90;89.20;;;;;;5017553;28;20183;-61
2022/02/05 13:02:15;;;;;;;7.03;2.60;;;6.90;89.40;;;;;;5017261;28;20230;-60
2022/02/05 13:04:43;;;;;;;9.10;2.95;;;7.00;89.40;;;;;;5017221;28;20229;-61
2022/02/05 13:07:12;;;;;;;7.93;2.75;;;7.00;88.80;;;;;;5016774;28;20203;-61
2022/02/05 13:09:46;;;;;;;5.72;2.47;;;7.10;87.00;;;;;;5016476;28;20229;-60
2022/02/05 13:12:14;;;;;;;11.48;2.90;;;7.10;85.70;;;;;;5017163;28;20654;-60
2022/02/05 13:14:46;;;;;;;8.32;3.17;;;7.10;86.10;;;;;;5016783;28;20207;-61
2022/02/05 13:17:28;;;;;;;10.13;3.50;;;7.20;86.00;;;;;;5016978;28;20187;-61
2022/02/05 13:28:12;;;;;;;7.65;2.90;;;7.30;83.60;;;;;;5012998;28;20218;-61
2022/02/05 13:33:48;;;;;;;6.20;2.50;;;7.40;82.20;;;;;;5016647;28;20261;-62
2022/02/05 13:36:21;;;;;;;3.10;2.13;;;7.50;82.40;;;;;;5017021;28;20274;-60
2022/02/05 13:39:09;;;;;;;11.02;3.15;;;7.60;81.00;;;;;;5016272;28;20287;-59
2022/02/05 13:41:44;;;;;;;7.88;2.90;;;7.60;80.20;;;;;;5015356;28;20215;-59
2022/02/05 13:44:15;;;;;;;5.40;2.55;;;7.60;79.70;;;;;;5016190;28;20187;-60
2022/02/05 13:46:42;;;;;;;7.72;3.22;;;7.50;79.50;;;;;;5016895;28;20222;-61
2022/02/05 13:49:19;;;;;;;6.82;3.13;;;7.40;78.60;;;;;;5015788;28;20576;-61
2022/02/05 13:51:46;;;;;;;5.15;2.80;;;7.30;79.50;;;;;;5015683;28;20679;-61
2022/02/05 13:54:14;;;;;;;6.30;3.60;;;7.30;79.90;;;;;;5016062;28;20199;-59
2022/02/05 13:56:41;;;;;;;6.60;2.90;;;7.20;80.30;;;;;;5015964;28;20615;-61
2022/02/05 13:59:21;;;;;;;8.13;2.78;;;7.30;81.10;;;;;;5015935;28;20219;-59
2022/02/05 14:01:48;;;;;;;4.38;2.53;;;7.20;81.20;;;;;;5015938;28;20265;-61
2022/02/05 14:04:19;;;;;;;4.75;3.08;;;7.20;82.00;;;;;;5017789;28;20205;-61
2022/02/05 14:06:57;;;;;;;6.93;3.45;;;7.20;82.10;;;;;;5016254;28;20195;-61
2022/02/05 14:09:27;;;;;;;5.90;3.28;;;7.10;82.40;;;;;;5016247;28;20191;-60
2022/02/05 14:11:56;;;;;;;6.70;2.97;;;7.00;82.70;;;;;;5015303;28;20709;-61
2022/02/05 14:14:28;;;;;;;4.85;2.60;;;7.00;83.30;;;;;;5015657;28;20203;-59
2022/02/05 14:16:56;;;;;;;9.27;2.92;;;7.10;83.90;;;;;;5016162;28;20207;-60
2022/02/05 14:19:27;;;;;;;6.60;2.70;;;7.10;84.10;;;;;;5015692;28;20208;-61
2022/02/05 14:21:54;;;;;;;5.53;2.70;;;7.10;83.70;;;;;;5015476;28;20317;-61
2022/02/05 14:24:24;;;;;;;6.72;3.00;;;7.10;83.60;;;;;;5015605;28;20199;-60
2022/02/05 14:27:01;;;;;;;6.25;2.90;;;7.10;83.80;;;;;;5015287;28;20253;-62
2022/02/05 14:29:36;;;;;;;6.70;3.35;;;7.10;84.10;;;;;;5016209;28;20187;-61
2022/02/05 14:32:11;;;;;;;5.55;3.10;;;7.10;84.60;;;;;;5015281;28;20230;-61
2022/02/05 14:34:57;;;;;;;3.97;3.05;;;7.10;85.00;;;;;;5015490;28;20191;-60
2022/02/05 14:42:59;;;;;;;4.38;3.05;;;7.00;86.20;;;;;;5002069;28;20306;-61
2022/02/05 14:45:26;;;;;;;6.93;2.85;;;6.90;86.50;;;;;;5015394;28;20204;-61
2022/02/05 14:47:53;;;;;;;7.32;3.00;;;6.90;86.70;;;;;;5030550;28;20203;-61
2022/02/05 14:50:21;;;;;;;4.95;3.15;;;6.80;86.60;;;;;;5030049;28;20231;-61
2022/02/05 14:52:49;;;;;;;5.78;3.00;;;6.80;86.80;;;;;;5019908;28;20213;-60
2022/02/05 14:55:16;;;;;;;10.38;3.13;;;6.70;87.20;;;;;;5016722;28;20207;-59
2022/02/05 14:57:43;;;;;;;6.28;3.38;;;6.70;87.90;;;;;;5015774;28;20294;-60
2022/02/05 15:00:11;;;;;;;3.95;2.60;;;6.70;88.20;;;;;;5014968;28;20202;-60
2022/02/05 15:02:38;;;;;;;6.72;3.13;;;6.70;88.50;;;;;;5014931;28;20215;-60
2022/02/05 15:05:10;;;;;;;4.57;2.85;;;6.70;88.70;;;;;;5014467;28;20207;-61
2022/02/05 15:07:40;;;;;;;6.70;2.55;;;6.70;88.80;;;;;;5014700;28;20202;-61
2022/02/05 15:10:10;;;;;;;6.13;2.80;;;6.80;88.80;;;;;;5015439;28;20691;-58
2022/02/05 15:12:37;;;;;;;5.18;2.20;;;6.80;88.80;;;;;;5015776;28;20211;-60
2022/02/05 15:15:11;;;;;;;5.82;3.05;;;6.80;88.10;;;;;;5016987;28;20211;-59
2022/02/05 15:17:42;;;;;;;7.28;2.45;;;6.70;87.60;;;;;;5017265;28;20243;-60
2022/02/05 15:20:09;;;;;;;6.22;3.10;;;6.70;88.70;;;;;;5020204;28;20658;-59